sensor_id;sensor_type;location;lat;lon;timestamp;noise_LAeq;noise_LA_min;noise_LA_max;noise_LA01;noise_LA95
47109;Laerm;32856;51.422;6.794;2023-04-25T00:02:03;45.89;39.58;52.04;;
47109;Laerm;32856;51.422;6.794;2023-04-25T00:04:31;48.94;40.13;64.86;;
47109;Laerm;32856;51.422;6.794;2023-04-25T00:07:00;44.03;39.70;52.53;;
47109;Laerm;32856;51.422;6.794;2023-04-25T00:09:30;45.78;41.68;51.50;;
47109;Laerm;32856;51.422;6.794;2023-04-25T00:11:57;54.26;42.82;71.94;;
47109;Laerm;32856;51.422;6.794;2023-04-25T00:14:24;50.46;40.53;63.84;;
47109;Laerm;32856;51.422;6.794;2023-04-25T00:16:51;49.63;41.53;65.86;;
47109;Laerm;32856;51.422;6.794;2023-04-25T00:19:20;51.00;39.08;57.93;;
47109;Laerm;32856;51.422;6.794;2023-04-25T00:21:47;45.13;41.68;48.98;;
47109;Laerm;32856;51.422;6.794;2023-04-25T00:24:15;47.85;41.53;53.99;;
47109;Laerm;32856;51.422;6.794;2023-04-25T00:26:43;44.98;40.71;51.72;;
47109;Laerm;32856;51.422;6.794;2023-04-25T00:29:11;46.66;41.22;52.53;;
47109;Laerm;32856;51.422;6.794;2023-04-25T00:31:38;45.04;41.19;48.43;;
47109;Laerm;32856;51.422;6.794;2023-04-25T00:34:05;45.36;41.33;51.01;;
47109;Laerm;32856;51.422;6.794;2023-04-25T00:36:34;45.67;41.96;49.65;;
47109;Laerm;32856;51.422;6.794;2023-04-25T00:39:01;46.03;42.82;52.38;;
47109;Laerm;32856;51.422;6.794;2023-04-25T00:41:30;53.10;42.41;70.57;;
47109;Laerm;32856;51.422;6.794;2023-04-25T00:43:59;47.28;43.90;50.45;;
47109;Laerm;32856;51.422;6.794;2023-04-25T00:46:27;46.54;42.03;51.94;;
47109;Laerm;32856;51.422;6.794;2023-04-25T00:48:55;49.87;44.47;58.39;;
47109;Laerm;32856;51.422;6.794;2023-04-25T00:51:22;53.44;44.76;60.32;;
47109;Laerm;32856;51.422;6.794;2023-04-25T00:53:49;53.79;43.14;69.94;;
47109;Laerm;32856;51.422;6.794;2023-04-25T00:56:17;47.17;43.86;53.77;;
47109;Laerm;32856;51.422;6.794;2023-04-25T00:58:45;50.00;42.29;65.94;;
47109;Laerm;32856;51.422;6.794;2023-04-25T01:01:13;52.34;43.64;66.54;;
47109;Laerm;32856;51.422;6.794;2023-04-25T01:03:41;52.58;40.71;68.27;;
47109;Laerm;32856;51.422;6.794;2023-04-25T01:06:09;51.29;39.81;66.90;;
47109;Laerm;32856;51.422;6.794;2023-04-25T01:08:37;45.68;43.29;49.59;;
47109;Laerm;32856;51.422;6.794;2023-04-25T01:11:05;55.46;43.34;72.48;;
47109;Laerm;32856;51.422;6.794;2023-04-25T01:13:32;53.28;41.82;69.16;;
47109;Laerm;32856;51.422;6.794;2023-04-25T01:16:00;53.17;43.14;66.49;;
47109;Laerm;32856;51.422;6.794;2023-04-25T01:18:29;56.62;39.70;71.66;;
47109;Laerm;32856;51.422;6.794;2023-04-25T01:20:56;46.29;42.16;54.23;;
47109;Laerm;32856;51.422;6.794;2023-04-25T01:23:26;53.28;42.65;71.59;;
47109;Laerm;32856;51.422;6.794;2023-04-25T01:25:55;48.22;43.04;56.87;;
47109;Laerm;32856;51.422;6.794;2023-04-25T01:28:22;52.99;43.39;70.67;;
47109;Laerm;32856;51.422;6.794;2023-04-25T01:30:50;49.56;42.65;57.76;;
47109;Laerm;32856;51.422;6.794;2023-04-25T01:33:18;46.34;42.53;58.19;;
47109;Laerm;32856;51.422;6.794;2023-04-25T01:35:46;45.98;42.41;52.60;;
47109;Laerm;32856;51.422;6.794;2023-04-25T01:38:14;46.76;42.29;55.90;;
47109;Laerm;32856;51.422;6.794;2023-04-25T01:40:43;51.18;42.16;66.40;;
47109;Laerm;32856;51.422;6.794;2023-04-25T01:43:11;57.91;40.89;73.47;;
47109;Laerm;32856;51.422;6.794;2023-04-25T01:45:40;48.14;43.19;60.92;;
47109;Laerm;32856;51.422;6.794;2023-04-25T01:48:07;55.75;42.47;74.41;;
47109;Laerm;32856;51.422;6.794;2023-04-25T01:50:35;50.54;42.47;59.01;;
47109;Laerm;32856;51.422;6.794;2023-04-25T01:53:02;50.07;42.09;62.18;;
47109;Laerm;32856;51.422;6.794;2023-04-25T01:55:31;47.35;42.88;57.47;;
47109;Laerm;32856;51.422;6.794;2023-04-25T01:57:59;53.38;41.89;72.17;;
47109;Laerm;32856;51.422;6.794;2023-04-25T02:00:27;46.83;41.61;60.31;;
47109;Laerm;32856;51.422;6.794;2023-04-25T02:02:57;54.14;42.47;70.36;;
47109;Laerm;32856;51.422;6.794;2023-04-25T02:05:24;48.33;43.14;61.25;;
47109;Laerm;32856;51.422;6.794;2023-04-25T02:07:52;47.06;42.47;60.21;;
47109;Laerm;32856;51.422;6.794;2023-04-25T02:10:19;47.62;42.82;62.12;;
47109;Laerm;32856;51.422;6.794;2023-04-25T02:12:46;56.53;44.15;72.93;;
47109;Laerm;32856;51.422;6.794;2023-04-25T02:15:15;48.19;42.16;57.81;;
47109;Laerm;32856;51.422;6.794;2023-04-25T02:17:42;48.42;42.98;58.05;;
47109;Laerm;32856;51.422;6.794;2023-04-25T02:20:11;55.14;43.68;70.41;;
47109;Laerm;32856;51.422;6.794;2023-04-25T02:22:38;49.07;43.49;61.27;;
47109;Laerm;32856;51.422;6.794;2023-04-25T02:25:06;52.66;43.54;69.60;;
47109;Laerm;32856;51.422;6.794;2023-04-25T02:27:33;50.20;43.54;65.60;;
47109;Laerm;32856;51.422;6.794;2023-04-25T02:30:01;54.55;44.73;66.81;;
47109;Laerm;32856;51.422;6.794;2023-04-25T02:32:30;55.50;44.31;72.85;;
47109;Laerm;32856;51.422;6.794;2023-04-25T02:34:57;49.42;44.11;64.29;;
47109;Laerm;32856;51.422;6.794;2023-04-25T02:37:29;60.08;47.04;74.82;;
47109;Laerm;32856;51.422;6.794;2023-04-25T02:39:57;51.49;45.04;61.19;;
47109;Laerm;32856;51.422;6.794;2023-04-25T02:42:24;49.45;42.82;60.46;;
47109;Laerm;32856;51.422;6.794;2023-04-25T02:44:51;55.05;44.87;70.23;;
47109;Laerm;32856;51.422;6.794;2023-04-25T02:47:19;59.11;45.14;76.72;;
47109;Laerm;32856;51.422;6.794;2023-04-25T02:49:47;53.95;45.07;71.24;;
47109;Laerm;32856;51.422;6.794;2023-04-25T02:52:15;52.13;44.87;69.37;;
47109;Laerm;32856;51.422;6.794;2023-04-25T02:54:42;51.87;44.72;66.30;;
47109;Laerm;32856;51.422;6.794;2023-04-25T02:57:09;57.29;46.30;75.38;;
47109;Laerm;32856;51.422;6.794;2023-04-25T02:59:37;54.57;47.55;68.58;;
47109;Laerm;32856;51.422;6.794;2023-04-25T03:02:04;58.40;45.91;73.04;;
47109;Laerm;32856;51.422;6.794;2023-04-25T03:04:31;55.18;44.69;69.28;;
47109;Laerm;32856;51.422;6.794;2023-04-25T03:07:00;56.02;44.27;73.38;;
47109;Laerm;32856;51.422;6.794;2023-04-25T03:09:28;58.05;46.69;74.78;;
47109;Laerm;32856;51.422;6.794;2023-04-25T03:11:56;63.66;44.69;80.55;;
47109;Laerm;32856;51.422;6.794;2023-04-25T03:14:23;61.56;46.40;74.84;;
47109;Laerm;32856;51.422;6.794;2023-04-25T03:16:50;53.60;46.48;67.82;;
47109;Laerm;32856;51.422;6.794;2023-04-25T03:19:17;59.89;46.38;75.31;;
47109;Laerm;32856;51.422;6.794;2023-04-25T03:21:46;59.76;48.87;76.18;;
47109;Laerm;32856;51.422;6.794;2023-04-25T03:24:15;53.73;47.04;69.23;;
47109;Laerm;32856;51.422;6.794;2023-04-25T03:26:42;61.16;48.00;74.53;;
47109;Laerm;32856;51.422;6.794;2023-04-25T03:29:10;54.96;47.55;69.67;;
47109;Laerm;32856;51.422;6.794;2023-04-25T03:31:37;58.67;48.00;72.60;;
47109;Laerm;32856;51.422;6.794;2023-04-25T03:34:05;60.92;48.60;72.89;;
47109;Laerm;32856;51.422;6.794;2023-04-25T03:36:32;60.54;49.97;72.65;;
47109;Laerm;32856;51.422;6.794;2023-04-25T03:38:59;58.49;47.65;71.40;;
47109;Laerm;32856;51.422;6.794;2023-04-25T03:41:28;54.41;48.16;69.01;;
47109;Laerm;32856;51.422;6.794;2023-04-25T03:43:55;61.10;49.06;73.01;;
47109;Laerm;32856;51.422;6.794;2023-04-25T03:46:23;62.85;49.44;76.87;;
47109;Laerm;32856;51.422;6.794;2023-04-25T03:48:50;59.29;48.94;71.92;;
47109;Laerm;32856;51.422;6.794;2023-04-25T03:51:17;60.98;48.69;72.74;;
47109;Laerm;32856;51.422;6.794;2023-04-25T03:53:45;62.22;49.46;74.32;;
47109;Laerm;32856;51.422;6.794;2023-04-25T03:56:12;60.32;48.00;73.49;;
47109;Laerm;32856;51.422;6.794;2023-04-25T03:58:41;56.51;48.70;70.01;;
47109;Laerm;32856;51.422;6.794;2023-04-25T04:01:08;62.43;49.20;76.52;;
47109;Laerm;32856;51.422;6.794;2023-04-25T04:03:35;58.21;49.32;75.71;;
47109;Laerm;32856;51.422;6.794;2023-04-25T04:06:03;55.93;48.08;69.34;;
47109;Laerm;32856;51.422;6.794;2023-04-25T04:08:31;60.67;49.33;72.17;;
47109;Laerm;32856;51.422;6.794;2023-04-25T04:10:58;59.91;48.39;73.94;;
47109;Laerm;32856;51.422;6.794;2023-04-25T04:13:26;61.48;48.67;77.83;;
47109;Laerm;32856;51.422;6.794;2023-04-25T04:15:55;57.73;47.88;70.95;;
47109;Laerm;32856;51.422;6.794;2023-04-25T04:18:23;62.49;48.95;78.85;;
47109;Laerm;32856;51.422;6.794;2023-04-25T04:20:50;59.57;48.74;71.73;;
47109;Laerm;32856;51.422;6.794;2023-04-25T04:23:18;62.84;50.39;75.50;;
47109;Laerm;32856;51.422;6.794;2023-04-25T04:25:46;61.90;48.73;71.71;;
47109;Laerm;32856;51.422;6.794;2023-04-25T04:28:14;62.55;48.69;77.24;;
47109;Laerm;32856;51.422;6.794;2023-04-25T04:30:42;62.19;49.40;73.90;;
47109;Laerm;32856;51.422;6.794;2023-04-25T04:33:14;62.66;49.49;75.34;;
47109;Laerm;32856;51.422;6.794;2023-04-25T04:35:42;63.03;49.91;76.78;;
47109;Laerm;32856;51.422;6.794;2023-04-25T04:38:09;62.69;49.07;77.09;;
47109;Laerm;32856;51.422;6.794;2023-04-25T04:40:37;61.18;49.92;74.07;;
47109;Laerm;32856;51.422;6.794;2023-04-25T04:43:05;58.52;49.53;73.39;;
47109;Laerm;32856;51.422;6.794;2023-04-25T04:45:34;61.66;49.23;74.51;;
47109;Laerm;32856;51.422;6.794;2023-04-25T04:48:02;63.10;50.17;77.87;;
47109;Laerm;32856;51.422;6.794;2023-04-25T04:50:32;62.69;50.17;76.41;;
47109;Laerm;32856;51.422;6.794;2023-04-25T04:53:00;65.92;50.15;77.97;;
47109;Laerm;32856;51.422;6.794;2023-04-25T04:55:27;63.88;50.91;75.70;;
47109;Laerm;32856;51.422;6.794;2023-04-25T04:57:54;59.87;49.59;72.23;;
47109;Laerm;32856;51.422;6.794;2023-04-25T05:00:22;63.72;49.71;75.61;;
47109;Laerm;32856;51.422;6.794;2023-04-25T05:02:49;63.71;50.82;75.29;;
47109;Laerm;32856;51.422;6.794;2023-04-25T05:05:17;62.92;49.02;77.35;;
47109;Laerm;32856;51.422;6.794;2023-04-25T05:07:45;64.54;50.41;75.65;;
47109;Laerm;32856;51.422;6.794;2023-04-25T05:10:12;64.25;49.80;80.25;;
47109;Laerm;32856;51.422;6.794;2023-04-25T05:12:40;62.42;50.15;73.90;;
47109;Laerm;32856;51.422;6.794;2023-04-25T05:15:07;64.61;50.96;77.55;;
47109;Laerm;32856;51.422;6.794;2023-04-25T05:17:35;62.61;50.01;71.79;;
47109;Laerm;32856;51.422;6.794;2023-04-25T05:20:02;65.38;50.96;78.56;;
47109;Laerm;32856;51.422;6.794;2023-04-25T05:22:31;62.22;50.77;71.56;;
47109;Laerm;32856;51.422;6.794;2023-04-25T05:25:00;64.73;49.71;78.12;;
47109;Laerm;32856;51.422;6.794;2023-04-25T05:27:28;63.13;50.32;74.04;;
47109;Laerm;32856;51.422;6.794;2023-04-25T05:29:55;64.86;51.10;78.10;;
47109;Laerm;32856;51.422;6.794;2023-04-25T05:32:22;63.37;50.16;74.04;;
47109;Laerm;32856;51.422;6.794;2023-04-25T05:34:51;65.29;50.05;75.76;;
47109;Laerm;32856;51.422;6.794;2023-04-25T05:37:18;65.46;50.91;74.53;;
47109;Laerm;32856;51.422;6.794;2023-04-25T05:39:45;65.02;50.99;76.58;;
47109;Laerm;32856;51.422;6.794;2023-04-25T05:42:14;66.71;50.22;75.44;;
47109;Laerm;32856;51.422;6.794;2023-04-25T05:44:42;64.50;51.55;73.30;;
47109;Laerm;32856;51.422;6.794;2023-04-25T05:47:09;63.68;50.74;75.44;;
47109;Laerm;32856;51.422;6.794;2023-04-25T05:49:37;63.02;49.59;72.86;;
47109;Laerm;32856;51.422;6.794;2023-04-25T05:52:04;64.40;51.62;77.04;;
47109;Laerm;32856;51.422;6.794;2023-04-25T05:54:31;64.49;51.84;73.75;;
47109;Laerm;32856;51.422;6.794;2023-04-25T05:56:58;66.75;50.45;79.33;;
47109;Laerm;32856;51.422;6.794;2023-04-25T05:59:27;65.94;49.48;75.79;;
47109;Laerm;32856;51.422;6.794;2023-04-25T06:01:55;65.47;49.85;76.14;;
47109;Laerm;32856;51.422;6.794;2023-04-25T06:04:22;65.54;51.53;74.85;;
47109;Laerm;32856;51.422;6.794;2023-04-25T06:06:49;65.99;51.30;78.84;;
47109;Laerm;32856;51.422;6.794;2023-04-25T06:09:17;67.05;52.33;78.21;;
47109;Laerm;32856;51.422;6.794;2023-04-25T06:11:44;63.58;48.84;75.54;;
47109;Laerm;32856;51.422;6.794;2023-04-25T06:14:12;66.21;49.84;81.09;;
47109;Laerm;32856;51.422;6.794;2023-04-25T06:16:41;66.62;51.37;77.42;;
47109;Laerm;32856;51.422;6.794;2023-04-25T06:19:08;65.36;50.21;79.22;;
47109;Laerm;32856;51.422;6.794;2023-04-25T06:21:36;63.90;50.30;75.25;;
47109;Laerm;32856;51.422;6.794;2023-04-25T06:24:03;66.86;50.53;80.43;;
47109;Laerm;32856;51.422;6.794;2023-04-25T06:26:31;67.53;50.82;82.71;;
47109;Laerm;32856;51.422;6.794;2023-04-25T06:28:58;66.00;52.13;75.83;;
47109;Laerm;32856;51.422;6.794;2023-04-25T06:31:26;66.11;51.34;75.54;;
47109;Laerm;32856;51.422;6.794;2023-04-25T06:33:56;64.70;50.84;76.78;;
47109;Laerm;32856;51.422;6.794;2023-04-25T06:36:23;65.06;51.13;78.42;;
47109;Laerm;32856;51.422;6.794;2023-04-25T06:38:52;66.03;52.34;75.58;;
47109;Laerm;32856;51.422;6.794;2023-04-25T06:41:19;64.99;51.60;75.45;;
47109;Laerm;32856;51.422;6.794;2023-04-25T06:43:47;66.31;50.84;83.01;;
47109;Laerm;32856;51.422;6.794;2023-04-25T06:46:14;66.52;51.50;78.09;;
47109;Laerm;32856;51.422;6.794;2023-04-25T06:48:41;66.80;53.53;78.45;;
47109;Laerm;32856;51.422;6.794;2023-04-25T06:51:10;64.45;50.43;81.06;;
47109;Laerm;32856;51.422;6.794;2023-04-25T06:53:39;66.12;50.92;75.72;;
47109;Laerm;32856;51.422;6.794;2023-04-25T06:56:06;64.91;48.88;77.47;;
47109;Laerm;32856;51.422;6.794;2023-04-25T06:58:33;63.72;48.40;76.96;;
47109;Laerm;32856;51.422;6.794;2023-04-25T07:01:01;65.09;50.24;75.57;;
47109;Laerm;32856;51.422;6.794;2023-04-25T07:03:28;61.98;49.21;73.87;;
47109;Laerm;32856;51.422;6.794;2023-04-25T07:05:56;63.31;49.97;74.54;;
47109;Laerm;32856;51.422;6.794;2023-04-25T07:08:25;64.37;51.88;76.18;;
47109;Laerm;32856;51.422;6.794;2023-04-25T07:10:52;64.74;50.03;75.82;;
47109;Laerm;32856;51.422;6.794;2023-04-25T07:13:19;60.57;47.79;71.93;;
47109;Laerm;32856;51.422;6.794;2023-04-25T07:15:47;67.09;49.12;83.54;;
47109;Laerm;32856;51.422;6.794;2023-04-25T07:18:14;66.12;50.27;77.40;;
47109;Laerm;32856;51.422;6.794;2023-04-25T07:20:42;64.55;49.19;76.10;;
47109;Laerm;32856;51.422;6.794;2023-04-25T07:23:09;62.34;49.44;77.20;;
47109;Laerm;32856;51.422;6.794;2023-04-25T07:25:38;64.44;50.25;77.67;;
47109;Laerm;32856;51.422;6.794;2023-04-25T07:28:06;64.34;49.24;75.42;;
47109;Laerm;32856;51.422;6.794;2023-04-25T07:30:33;65.94;51.53;79.25;;
47109;Laerm;32856;51.422;6.794;2023-04-25T07:33:01;62.76;49.02;74.45;;
47109;Laerm;32856;51.422;6.794;2023-04-25T07:35:28;63.92;49.30;75.08;;
47109;Laerm;32856;51.422;6.794;2023-04-25T07:37:55;63.12;50.41;74.71;;
47109;Laerm;32856;51.422;6.794;2023-04-25T07:40:23;66.13;51.68;77.50;;
47109;Laerm;32856;51.422;6.794;2023-04-25T07:42:51;64.82;50.10;77.93;;
47109;Laerm;32856;51.422;6.794;2023-04-25T07:45:19;65.00;50.55;76.84;;
47109;Laerm;32856;51.422;6.794;2023-04-25T07:47:46;66.18;48.76;78.35;;
47109;Laerm;32856;51.422;6.794;2023-04-25T07:50:14;65.32;50.91;75.33;;
47109;Laerm;32856;51.422;6.794;2023-04-25T07:52:41;65.31;50.25;78.88;;
47109;Laerm;32856;51.422;6.794;2023-04-25T07:55:08;62.44;49.74;74.77;;
47109;Laerm;32856;51.422;6.794;2023-04-25T07:57:36;65.13;50.18;77.26;;
47109;Laerm;32856;51.422;6.794;2023-04-25T08:00:06;63.55;50.08;75.46;;
47109;Laerm;32856;51.422;6.794;2023-04-25T08:02:35;64.57;49.38;75.65;;
47109;Laerm;32856;51.422;6.794;2023-04-25T08:05:03;62.81;49.51;72.69;;
47109;Laerm;32856;51.422;6.794;2023-04-25T08:07:31;66.25;50.81;80.27;;
47109;Laerm;32856;51.422;6.794;2023-04-25T08:09:58;67.13;51.41;81.60;;
47109;Laerm;32856;51.422;6.794;2023-04-25T08:12:25;65.53;49.66;77.42;;
47109;Laerm;32856;51.422;6.794;2023-04-25T08:14:53;64.14;49.14;74.48;;
47109;Laerm;32856;51.422;6.794;2023-04-25T08:17:21;65.72;49.35;79.93;;
47109;Laerm;32856;51.422;6.794;2023-04-25T08:19:49;63.43;49.79;74.61;;
47109;Laerm;32856;51.422;6.794;2023-04-25T08:22:16;66.47;51.58;79.70;;
47109;Laerm;32856;51.422;6.794;2023-04-25T08:24:44;65.61;48.32;80.41;;
47109;Laerm;32856;51.422;6.794;2023-04-25T08:27:11;67.48;49.03;82.13;;
47109;Laerm;32856;51.422;6.794;2023-04-25T08:29:39;62.92;48.91;73.15;;
47109;Laerm;32856;51.422;6.794;2023-04-25T08:32:06;61.89;48.71;74.63;;
47109;Laerm;32856;51.422;6.794;2023-04-25T08:34:35;62.58;50.14;76.43;;
47109;Laerm;32856;51.422;6.794;2023-04-25T08:37:03;64.76;50.17;75.65;;
47109;Laerm;32856;51.422;6.794;2023-04-25T08:39:31;65.15;50.14;78.64;;
47109;Laerm;32856;51.422;6.794;2023-04-25T08:41:59;62.29;48.02;74.37;;
47109;Laerm;32856;51.422;6.794;2023-04-25T08:44:28;62.54;48.55;74.34;;
47109;Laerm;32856;51.422;6.794;2023-04-25T08:46:56;62.71;48.94;76.64;;
47109;Laerm;32856;51.422;6.794;2023-04-25T08:49:23;65.40;48.99;76.69;;
47109;Laerm;32856;51.422;6.794;2023-04-25T08:51:53;61.34;47.55;73.02;;
47109;Laerm;32856;51.422;6.794;2023-04-25T08:54:24;64.84;49.32;75.84;;
47109;Laerm;32856;51.422;6.794;2023-04-25T08:57:01;63.84;48.28;76.67;;
47109;Laerm;32856;51.422;6.794;2023-04-25T08:59:30;64.81;48.07;78.97;;
47109;Laerm;32856;51.422;6.794;2023-04-25T09:01:57;64.12;47.98;76.11;;
47109;Laerm;32856;51.422;6.794;2023-04-25T09:04:25;61.87;48.23;74.45;;
47109;Laerm;32856;51.422;6.794;2023-04-25T09:06:53;64.20;48.57;75.91;;
47109;Laerm;32856;51.422;6.794;2023-04-25T09:09:21;65.14;48.51;76.83;;
47109;Laerm;32856;51.422;6.794;2023-04-25T09:11:48;64.68;48.05;79.05;;
47109;Laerm;32856;51.422;6.794;2023-04-25T09:14:16;66.72;47.63;83.26;;
47109;Laerm;32856;51.422;6.794;2023-04-25T09:16:59;63.93;48.88;74.80;;
47109;Laerm;32856;51.422;6.794;2023-04-25T09:19:28;64.45;48.96;77.24;;
47109;Laerm;32856;51.422;6.794;2023-04-25T09:22:00;63.83;48.76;75.78;;
47109;Laerm;32856;51.422;6.794;2023-04-25T09:24:32;63.82;46.78;79.66;;
47109;Laerm;32856;51.422;6.794;2023-04-25T09:26:59;62.95;48.48;76.62;;
47109;Laerm;32856;51.422;6.794;2023-04-25T09:29:29;64.28;49.55;75.70;;
47109;Laerm;32856;51.422;6.794;2023-04-25T09:32:14;65.19;49.83;78.96;;
47109;Laerm;32856;51.422;6.794;2023-04-25T09:34:43;64.59;49.21;76.57;;
47109;Laerm;32856;51.422;6.794;2023-04-25T09:37:12;65.90;50.56;79.03;;
47109;Laerm;32856;51.422;6.794;2023-04-25T09:39:39;64.39;49.70;76.39;;
47109;Laerm;32856;51.422;6.794;2023-04-25T09:42:07;65.07;48.57;76.37;;
47109;Laerm;32856;51.422;6.794;2023-04-25T09:44:36;63.47;47.28;79.49;;
47109;Laerm;32856;51.422;6.794;2023-04-25T09:47:03;65.22;49.96;78.61;;
47109;Laerm;32856;51.422;6.794;2023-04-25T09:49:31;65.57;49.00;81.11;;
47109;Laerm;32856;51.422;6.794;2023-04-25T09:51:58;62.20;49.11;74.83;;
47109;Laerm;32856;51.422;6.794;2023-04-25T09:54:27;63.99;49.75;76.86;;
47109;Laerm;32856;51.422;6.794;2023-04-25T09:56:54;65.55;53.15;77.33;;
47109;Laerm;32856;51.422;6.794;2023-04-25T09:59:22;67.47;48.67;81.29;;
47109;Laerm;32856;51.422;6.794;2023-04-25T10:01:50;64.79;48.75;80.63;;
47109;Laerm;32856;51.422;6.794;2023-04-25T10:04:18;65.03;48.77;76.63;;
47109;Laerm;32856;51.422;6.794;2023-04-25T10:06:48;64.15;49.70;78.21;;
47109;Laerm;32856;51.422;6.794;2023-04-25T10:09:16;65.06;48.29;77.57;;
47109;Laerm;32856;51.422;6.794;2023-04-25T10:11:45;66.73;52.71;77.24;;
47109;Laerm;32856;51.422;6.794;2023-04-25T10:14:13;66.05;48.36;80.42;;
47109;Laerm;32856;51.422;6.794;2023-04-25T10:16:41;61.49;47.77;75.90;;
47109;Laerm;32856;51.422;6.794;2023-04-25T10:19:09;62.56;47.91;77.78;;
47109;Laerm;32856;51.422;6.794;2023-04-25T10:21:36;62.19;47.08;74.65;;
47109;Laerm;32856;51.422;6.794;2023-04-25T10:24:07;67.72;49.92;81.23;;
47109;Laerm;32856;51.422;6.794;2023-04-25T10:26:35;62.16;47.18;76.28;;
47109;Laerm;32856;51.422;6.794;2023-04-25T10:29:04;66.58;49.51;78.39;;
47109;Laerm;32856;51.422;6.794;2023-04-25T10:31:31;65.58;46.59;81.52;;
47109;Laerm;32856;51.422;6.794;2023-04-25T10:33:59;62.63;47.88;75.27;;
47109;Laerm;32856;51.422;6.794;2023-04-25T10:36:27;66.06;48.69;84.32;;
47109;Laerm;32856;51.422;6.794;2023-04-25T10:38:58;64.98;49.10;79.84;;
47109;Laerm;32856;51.422;6.794;2023-04-25T10:41:33;64.31;48.73;76.30;;
47109;Laerm;32856;51.422;6.794;2023-04-25T10:44:13;64.40;46.50;78.69;;
47109;Laerm;32856;51.422;6.794;2023-04-25T10:46:41;69.73;48.26;85.28;;
47109;Laerm;32856;51.422;6.794;2023-04-25T10:49:08;63.96;46.18;79.84;;
47109;Laerm;32856;51.422;6.794;2023-04-25T10:51:38;65.59;49.32;77.90;;
47109;Laerm;32856;51.422;6.794;2023-04-25T10:54:19;63.92;47.46;82.52;;
47109;Laerm;32856;51.422;6.794;2023-04-25T10:56:48;64.26;49.72;74.33;;
47109;Laerm;32856;51.422;6.794;2023-04-25T10:59:19;65.38;51.56;75.40;;
47109;Laerm;32856;51.422;6.794;2023-04-25T11:01:48;65.61;51.39;76.00;;
47109;Laerm;32856;51.422;6.794;2023-04-25T11:04:22;65.50;52.23;77.41;;
47109;Laerm;32856;51.422;6.794;2023-04-25T11:06:57;65.54;52.03;75.95;;
47109;Laerm;32856;51.422;6.794;2023-04-25T11:09:32;65.31;51.62;77.96;;
47109;Laerm;32856;51.422;6.794;2023-04-25T11:11:59;66.58;51.71;81.04;;
47109;Laerm;32856;51.422;6.794;2023-04-25T11:14:28;64.18;50.99;78.54;;
47109;Laerm;32856;51.422;6.794;2023-04-25T11:16:56;62.20;51.82;74.02;;
47109;Laerm;32856;51.422;6.794;2023-04-25T11:19:25;65.17;50.94;77.28;;
47109;Laerm;32856;51.422;6.794;2023-04-25T11:21:54;64.03;51.01;76.41;;
47109;Laerm;32856;51.422;6.794;2023-04-25T11:24:25;63.98;49.50;77.09;;
47109;Laerm;32856;51.422;6.794;2023-04-25T11:26:52;64.94;50.51;75.16;;
47109;Laerm;32856;51.422;6.794;2023-04-25T11:29:21;67.74;49.25;83.57;;
47109;Laerm;32856;51.422;6.794;2023-04-25T11:31:50;63.13;48.87;75.58;;
47109;Laerm;32856;51.422;6.794;2023-04-25T11:34:17;64.09;48.99;79.17;;
47109;Laerm;32856;51.422;6.794;2023-04-25T11:36:45;67.86;51.91;78.91;;
47109;Laerm;32856;51.422;6.794;2023-04-25T11:39:12;65.03;49.41;76.51;;
47109;Laerm;32856;51.422;6.794;2023-04-25T11:41:41;64.26;46.97;78.69;;
47109;Laerm;32856;51.422;6.794;2023-04-25T11:44:09;66.35;49.36;81.41;;
47109;Laerm;32856;51.422;6.794;2023-04-25T11:46:36;64.58;51.23;76.14;;
47109;Laerm;32856;51.422;6.794;2023-04-25T11:49:05;63.39;49.55;78.89;;
47109;Laerm;32856;51.422;6.794;2023-04-25T11:51:37;65.95;48.91;79.14;;
47109;Laerm;32856;51.422;6.794;2023-04-25T11:54:05;66.15;48.95;78.92;;
47109;Laerm;32856;51.422;6.794;2023-04-25T11:56:32;63.76;48.67;76.51;;
47109;Laerm;32856;51.422;6.794;2023-04-25T11:59:00;67.77;49.77;79.27;;
47109;Laerm;32856;51.422;6.794;2023-04-25T12:01:28;63.43;48.80;76.04;;
47109;Laerm;32856;51.422;6.794;2023-04-25T12:03:56;64.75;49.84;75.41;;
47109;Laerm;32856;51.422;6.794;2023-04-25T12:06:28;65.89;48.49;81.05;;
47109;Laerm;32856;51.422;6.794;2023-04-25T12:09:00;64.06;49.49;75.78;;
47109;Laerm;32856;51.422;6.794;2023-04-25T12:11:27;65.19;50.44;76.20;;
47109;Laerm;32856;51.422;6.794;2023-04-25T12:14:01;65.11;49.43;83.11;;
47109;Laerm;32856;51.422;6.794;2023-04-25T12:16:28;66.15;50.57;80.15;;
47109;Laerm;32856;51.422;6.794;2023-04-25T12:18:56;65.69;48.32;78.47;;
47109;Laerm;32856;51.422;6.794;2023-04-25T12:21:29;67.21;48.91;81.56;;
47109;Laerm;32856;51.422;6.794;2023-04-25T12:24:07;68.48;49.43;88.18;;
47109;Laerm;32856;51.422;6.794;2023-04-25T12:26:45;65.29;49.78;78.17;;
47109;Laerm;32856;51.422;6.794;2023-04-25T12:29:15;64.19;48.02;76.36;;
47109;Laerm;32856;51.422;6.794;2023-04-25T12:31:42;66.89;49.50;85.32;;
47109;Laerm;32856;51.422;6.794;2023-04-25T12:34:10;62.90;48.73;74.33;;
47109;Laerm;32856;51.422;6.794;2023-04-25T12:36:38;65.06;49.14;77.02;;
47109;Laerm;32856;51.422;6.794;2023-04-25T12:39:06;66.31;48.45;76.28;;
47109;Laerm;32856;51.422;6.794;2023-04-25T12:41:34;70.01;47.77;85.84;;
47109;Laerm;32856;51.422;6.794;2023-04-25T12:44:01;66.33;48.49;77.46;;
47109;Laerm;32856;51.422;6.794;2023-04-25T12:46:28;65.93;49.07;76.27;;
47109;Laerm;32856;51.422;6.794;2023-04-25T12:48:56;66.00;48.18;81.93;;
47109;Laerm;32856;51.422;6.794;2023-04-25T12:51:30;66.34;48.07;76.24;;
47109;Laerm;32856;51.422;6.794;2023-04-25T12:54:00;65.69;52.33;75.68;;
47109;Laerm;32856;51.422;6.794;2023-04-25T12:56:27;65.71;52.50;75.08;;
47109;Laerm;32856;51.422;6.794;2023-04-25T12:58:55;65.01;48.85;75.37;;
47109;Laerm;32856;51.422;6.794;2023-04-25T13:01:22;68.73;46.89;83.08;;
47109;Laerm;32856;51.422;6.794;2023-04-25T13:03:50;65.57;48.26;76.94;;
47109;Laerm;32856;51.422;6.794;2023-04-25T13:06:18;64.97;48.96;76.88;;
47109;Laerm;32856;51.422;6.794;2023-04-25T13:08:45;66.03;49.28;76.14;;
47109;Laerm;32856;51.422;6.794;2023-04-25T13:11:14;66.41;52.44;78.65;;
47109;Laerm;32856;51.422;6.794;2023-04-25T13:13:42;65.90;50.56;85.50;;
47109;Laerm;32856;51.422;6.794;2023-04-25T13:16:09;65.72;50.02;77.51;;
47109;Laerm;32856;51.422;6.794;2023-04-25T13:18:37;69.98;50.66;86.71;;
47109;Laerm;32856;51.422;6.794;2023-04-25T13:21:04;65.60;50.68;78.32;;
47109;Laerm;32856;51.422;6.794;2023-04-25T13:23:32;63.25;48.64;74.72;;
47109;Laerm;32856;51.422;6.794;2023-04-25T13:25:59;66.70;51.33;76.23;;
47109;Laerm;32856;51.422;6.794;2023-04-25T13:28:28;66.05;48.64;84.84;;
47109;Laerm;32856;51.422;6.794;2023-04-25T13:30:56;66.30;48.73;79.02;;
47109;Laerm;32856;51.422;6.794;2023-04-25T13:33:24;66.38;48.91;76.19;;
47109;Laerm;32856;51.422;6.794;2023-04-25T13:35:52;68.63;55.14;81.32;;
47109;Laerm;32856;51.422;6.794;2023-04-25T13:38:22;64.16;48.48;85.58;;
47109;Laerm;32856;51.422;6.794;2023-04-25T13:40:50;64.66;46.93;77.18;;
47109;Laerm;32856;51.422;6.794;2023-04-25T13:43:18;64.35;46.64;87.94;;
47109;Laerm;32856;51.422;6.794;2023-04-25T13:45:47;65.70;46.67;77.42;;
47109;Laerm;32856;51.422;6.794;2023-04-25T13:48:14;67.34;47.14;79.54;;
47109;Laerm;32856;51.422;6.794;2023-04-25T13:50:42;66.12;47.22;76.89;;